createdAt,value
2019-02-27T00:01:17.705Z,10.20
2019-02-27T00:06:12.877Z,10.10
2019-02-27T00:11:04.972Z,10.50
2019-02-27T00:15:56.353Z,11.00
2019-02-27T00:20:47.732Z,11.30
2019-02-27T00:25:39.251Z,13.90
2019-02-27T00:30:32.879Z,10.50
2019-02-27T00:35:24.295Z,15.90
2019-02-27T00:40:15.658Z,11.90
2019-02-27T00:45:09.336Z,10.80
2019-02-27T00:50:05.591Z,10.00
2019-02-27T00:54:52.125Z,14.80
2019-02-27T00:59:45.726Z,11.20
2019-02-27T01:04:37.146Z,13.20
2019-02-27T01:09:28.523Z,12.00
2019-02-27T01:14:19.904Z,13.10
2019-02-27T01:19:11.306Z,11.20
2019-02-27T01:24:02.691Z,10.90
2019-02-27T01:28:54.091Z,10.60
2019-02-27T01:33:45.532Z,9.80
2019-02-27T01:38:37.988Z,10.30
2019-02-27T01:43:28.304Z,15.40
2019-02-27T01:48:19.675Z,14.20
2019-02-27T01:53:11.074Z,9.90
2019-02-27T01:58:02.474Z,11.70
2019-02-27T02:02:53.840Z,10.00
2019-02-27T02:07:45.228Z,11.10
2019-02-27T02:12:39.031Z,10.60
2019-02-27T02:17:30.245Z,10.90
2019-02-27T02:22:21.649Z,12.60
2019-02-27T02:27:13.056Z,13.90
2019-02-27T02:32:06.692Z,13.80
2019-02-27T02:37:01.691Z,11.50
2019-02-27T02:41:51.809Z,10.90
2019-02-27T02:46:45.267Z,10.70
2019-02-27T02:51:34.522Z,9.50
2019-02-27T02:56:25.967Z,10.80
2019-02-27T03:01:19.673Z,13.40
2019-02-27T03:06:13.337Z,16.80
2019-02-27T03:11:06.960Z,11.10
2019-02-27T03:16:03.792Z,11.20
2019-02-27T03:20:52.990Z,15.10
2019-02-27T03:25:50.238Z,12.70
2019-02-27T03:30:43.869Z,14.30
2019-02-27T03:35:35.279Z,11.80
2019-02-27T03:40:29.008Z,13.40
2019-02-27T03:45:22.699Z,12.30
2019-02-27T03:50:18.596Z,13.30
2019-02-27T03:55:12.265Z,10.70
2019-02-27T04:00:03.614Z,11.80
2019-02-27T04:04:55.060Z,11.30
2019-02-27T04:09:54.769Z,11.70
2019-02-27T04:14:41.760Z,10.00
2019-02-27T04:19:31.484Z,10.10
2019-02-27T04:24:23.223Z,12.60
2019-02-27T04:29:14.275Z,11.10
2019-02-27T04:34:05.674Z,10.60
2019-02-27T04:38:57.056Z,11.70
2019-02-27T04:43:48.421Z,11.10
2019-02-27T04:48:39.840Z,10.00
2019-02-27T04:53:31.797Z,13.00
2019-02-27T04:58:22.562Z,10.90
2019-02-27T05:03:13.941Z,13.20
2019-02-27T05:08:07.631Z,12.90
2019-02-27T05:12:59.057Z,13.20
2019-02-27T05:17:53.005Z,12.50
2019-02-27T05:22:41.849Z,16.10
2019-02-27T05:27:35.496Z,12.70
2019-02-27T05:32:28.180Z,13.50
2019-02-27T05:37:18.333Z,13.30
2019-02-27T05:42:09.692Z,11.80
2019-02-27T05:47:03.386Z,12.00
2019-02-27T05:51:54.729Z,11.80
2019-02-27T05:56:47.099Z,20.30
2019-02-27T06:01:39.787Z,12.40
2019-02-27T06:06:31.179Z,11.50
2019-02-27T06:11:22.562Z,11.10
2019-02-27T06:16:14.043Z,11.80
2019-02-27T06:21:05.433Z,10.40
2019-02-27T06:25:59.366Z,10.90
2019-02-27T06:30:48.259Z,12.50
2019-02-27T06:35:41.864Z,10.40
2019-02-27T06:40:35.561Z,14.20
2019-02-27T06:45:26.926Z,11.70
2019-02-27T06:50:18.366Z,14.10
2019-02-27T06:55:09.749Z,11.30
2019-02-27T07:00:02.880Z,15.70
2019-02-27T07:04:52.522Z,13.50
2019-02-27T07:09:45.788Z,12.10
2019-02-27T07:14:36.468Z,12.00
2019-02-27T07:19:26.713Z,11.90
2019-02-27T07:24:18.195Z,13.60
2019-02-27T07:29:09.550Z,12.70
2019-02-27T07:34:01.002Z,14.00
2019-02-27T07:38:54.295Z,12.60
2019-02-27T07:43:46.010Z,13.00
2019-02-27T07:48:37.389Z,12.90
2019-02-27T07:53:28.804Z,16.10
2019-02-27T07:58:20.238Z,13.10
2019-02-27T08:03:13.046Z,14.10
2019-02-27T08:08:03.062Z,13.80
2019-02-27T08:12:56.374Z,12.60
2019-02-27T08:17:45.800Z,13.90
2019-02-27T08:22:37.174Z,15.20
2019-02-27T08:27:30.889Z,14.80
2019-02-27T08:32:22.207Z,13.30
2019-02-27T08:37:13.633Z,13.90
2019-02-27T08:42:04.980Z,14.40
2019-02-27T08:46:56.431Z,15.50
2019-02-27T08:51:47.796Z,14.50
2019-02-27T08:56:39.201Z,16.50
2019-02-27T09:01:32.867Z,16.00
2019-02-27T09:06:27.235Z,14.70
2019-02-27T09:11:15.627Z,13.70
2019-02-27T09:16:09.297Z,14.00
2019-02-27T09:21:00.695Z,15.50
2019-02-27T09:25:57.136Z,13.70
2019-02-27T09:30:45.705Z,14.90
2019-02-27T09:35:45.271Z,13.70
2019-02-27T09:40:43.626Z,13.40
2019-02-27T09:45:38.276Z,13.50
2019-02-27T09:50:32.217Z,11.80
2019-02-27T09:55:32.732Z,13.10
2019-02-27T10:00:27.705Z,11.90
2019-02-27T10:05:23.302Z,12.80
2019-02-27T10:14:47.865Z,14.80
2019-02-27T10:19:41.126Z,10.00
2019-02-27T10:24:32.647Z,10.70
2019-02-27T10:29:26.319Z,11.10
2019-02-27T10:34:18.280Z,10.40
2019-02-27T10:39:09.142Z,11.30
2019-02-27T10:44:00.561Z,9.00
2019-02-27T10:48:54.157Z,10.60
2019-02-27T10:53:45.597Z,8.70
2019-02-27T10:58:37.049Z,10.10
2019-02-27T11:03:28.394Z,12.20
2019-02-27T11:08:19.785Z,11.90
2019-02-27T11:13:11.179Z,12.00
2019-02-27T11:18:05.309Z,10.90
2019-02-27T11:22:53.997Z,10.40
2019-02-27T11:27:45.387Z,9.80
2019-02-27T11:32:36.796Z,12.40
2019-02-27T11:37:28.240Z,13.40
2019-02-27T11:42:19.579Z,14.10
2019-02-27T11:47:11.388Z,13.70
2019-02-27T11:52:02.408Z,13.30
2019-02-27T11:56:56.085Z,17.00
2019-02-27T12:01:45.246Z,13.10
2019-02-27T12:06:41.197Z,13.10
2019-02-27T12:11:30.324Z,13.00
2019-02-27T12:16:24.068Z,11.10
2019-02-27T12:21:15.490Z,10.00
2019-02-27T12:26:09.223Z,12.20
2019-02-27T12:31:00.542Z,8.90
2019-02-27T12:35:54.368Z,8.50
2019-02-27T12:40:45.747Z,8.90
2019-02-27T12:45:37.216Z,8.50
2019-02-27T12:50:30.960Z,7.90
2019-02-27T12:55:20.492Z,7.70
2019-02-27T13:00:11.280Z,7.90
2019-02-27T13:05:03.864Z,6.80
2019-02-27T13:09:58.623Z,6.50
2019-02-27T13:14:50.150Z,7.40
2019-02-27T13:19:41.549Z,5.60
2019-02-27T13:24:35.230Z,5.20
2019-02-27T13:29:26.651Z,6.00
2019-02-27T13:34:18.053Z,5.50
2019-02-27T13:39:09.480Z,6.10
2019-02-27T13:44:01.329Z,5.10
2019-02-27T13:48:52.235Z,5.10
2019-02-27T13:53:44.823Z,4.50
2019-02-27T13:58:37.332Z,4.00
2019-02-27T14:03:28.739Z,7.60
2019-02-27T14:08:20.150Z,6.00
2019-02-27T14:13:11.582Z,4.70
2019-02-27T14:18:02.926Z,3.80
2019-02-27T14:22:54.331Z,4.40
2019-02-27T14:27:47.402Z,5.20
2019-02-27T14:32:37.107Z,4.20
2019-02-27T14:37:30.806Z,4.20
2019-02-27T14:42:22.221Z,6.10
2019-02-27T14:47:16.373Z,5.10
2019-02-27T14:52:05.045Z,4.00
2019-02-27T14:56:56.462Z,4.80
2019-02-27T15:01:49.188Z,6.60
2019-02-27T15:06:41.604Z,4.50
2019-02-27T15:11:32.951Z,4.80
2019-02-27T15:16:24.404Z,5.30
2019-02-27T15:21:15.802Z,6.00
2019-02-27T15:26:07.268Z,5.40
2019-02-27T15:30:58.649Z,5.30
2019-02-27T15:35:50.029Z,4.40
2019-02-27T15:40:41.451Z,6.40
2019-02-27T15:45:32.814Z,4.20
2019-02-27T15:50:24.197Z,3.60
2019-02-27T15:55:15.653Z,5.00
2019-02-27T16:00:07.011Z,4.00
2019-02-27T16:04:58.481Z,4.20
2019-02-27T16:09:49.811Z,5.00
2019-02-27T16:14:42.824Z,4.90
2019-02-27T16:19:32.643Z,4.50
2019-02-27T16:24:24.150Z,5.60
2019-02-27T16:29:19.890Z,4.50
2019-02-27T16:34:09.264Z,5.60
2019-02-27T16:39:06.922Z,4.10
2019-02-27T16:43:52.011Z,3.90
2019-02-27T16:48:43.385Z,3.60
2019-02-27T16:53:34.814Z,4.30
2019-02-27T16:58:26.170Z,3.50
2019-02-27T17:03:17.612Z,6.20
2019-02-27T17:08:08.997Z,4.90
2019-02-27T17:13:00.405Z,4.90
2019-02-27T17:17:53.225Z,5.10
2019-02-27T17:22:43.232Z,8.90
2019-02-27T17:27:34.686Z,4.20
2019-02-27T17:32:30.204Z,6.40
2019-02-27T17:37:19.704Z,6.20
2019-02-27T17:42:11.114Z,5.20
2019-02-27T17:47:02.509Z,8.20
2019-02-27T17:51:53.879Z,6.50
2019-02-27T17:56:47.124Z,6.70
2019-02-27T18:01:36.635Z,7.30
2019-02-27T18:06:31.116Z,7.80
2019-02-27T18:11:23.974Z,5.90
2019-02-27T18:16:15.357Z,7.40
2019-02-27T18:21:06.750Z,6.10
2019-02-27T18:25:58.122Z,5.80
2019-02-27T18:30:52.709Z,7.60
2019-02-27T18:35:40.875Z,6.70
2019-02-27T18:40:32.278Z,5.70
2019-02-27T18:45:23.709Z,9.00
2019-02-27T18:50:15.060Z,6.70
2019-02-27T18:55:06.460Z,7.40
2019-02-27T19:00:01.293Z,12.10
2019-02-27T19:04:49.372Z,7.50
2019-02-27T19:09:40.891Z,6.20
2019-02-27T19:14:32.206Z,6.10
2019-02-27T19:19:23.842Z,6.30
2019-02-27T19:24:14.980Z,8.20
2019-02-27T19:29:06.392Z,5.40
2019-02-27T19:33:57.765Z,6.40
2019-02-27T19:38:49.189Z,6.00
2019-02-27T19:43:42.864Z,5.80
2019-02-27T19:48:44.175Z,5.80
2019-02-27T19:53:25.658Z,6.70
2019-02-27T19:58:18.200Z,6.50
2019-02-27T20:03:08.419Z,6.20
2019-02-27T20:08:07.207Z,6.10
2019-02-27T20:12:55.752Z,8.10
2019-02-27T20:17:47.158Z,6.90
2019-02-27T20:22:40.815Z,6.80
2019-02-27T20:27:32.222Z,6.60
2019-02-27T20:32:28.304Z,7.00
2019-02-27T20:37:15.275Z,5.80
2019-02-27T20:42:06.719Z,6.70
2019-02-27T20:46:58.051Z,5.70
2019-02-27T20:51:49.469Z,5.50
2019-02-27T20:56:40.853Z,5.70
2019-02-27T21:01:32.208Z,7.50
2019-02-27T21:06:23.707Z,9.30
2019-02-27T21:11:17.334Z,8.30
2019-02-27T21:16:10.047Z,7.20
2019-02-27T21:21:00.089Z,9.30
2019-02-27T21:25:51.532Z,7.40
2019-02-27T21:30:42.895Z,7.80
2019-02-27T21:35:34.313Z,7.50
2019-02-27T21:40:25.769Z,6.10
2019-02-27T21:45:17.184Z,8.40
2019-02-27T21:50:08.545Z,7.20
2019-02-27T21:54:59.970Z,7.90
2019-02-27T21:59:51.395Z,9.70
2019-02-27T22:04:44.024Z,8.60
2019-02-27T22:09:34.196Z,8.00
2019-02-27T22:14:25.557Z,11.20
2019-02-27T22:19:18.875Z,8.10
2019-02-27T22:24:08.404Z,14.70
2019-02-27T22:28:59.819Z,9.60
2019-02-27T22:33:53.080Z,7.30
2019-02-27T22:38:42.612Z,7.40
2019-02-27T22:43:36.261Z,7.40
2019-02-27T22:48:28.629Z,9.50
2019-02-27T22:53:19.112Z,8.30
2019-02-27T22:58:10.475Z,8.30
2019-02-27T23:03:01.885Z,7.60
2019-02-27T23:07:53.306Z,8.20
2019-02-27T23:12:44.711Z,6.20
2019-02-27T23:17:36.068Z,7.40
2019-02-27T23:22:28.665Z,6.10
2019-02-27T23:27:18.899Z,8.30
2019-02-27T23:32:10.291Z,10.50
2019-02-27T23:37:01.669Z,11.50
2019-02-27T23:41:53.945Z,7.90
2019-02-27T23:46:48.963Z,7.50
2019-02-27T23:51:35.841Z,7.50
2019-02-27T23:56:27.260Z,8.80
